Latest Weather Observations for Mount Gambier

IDS60801

Issued at 6:32 pm CST Monday 27 April 2015 (issued every 30 minutes, with the page automatically refreshed every 10 minutes)

About weather observations | Map of weather stations | Latest weather observations for SA | Other Formats
Station Details ID: 026021 Name: MOUNT GAMBIER AERO Lat: -37.75 Lon: 140.77 Height: 63.0 m
Data from the previous 72 hours. | See also: Recent months at Mount Gambier
Date/Time
CST
Temp
°C
App
Temp
°C
Dew
Point
Rel
Hum
%
Delta-T
°C
Wind Press
QNH
hPa
Press
MSL
hPa
Rain
since 9 am
mm
Dir
 
Spd
km/h
Gust
km/h
Spd
kts
Gust
kts
27/06:30pm 10.7 8.5 9.5 92 0.6 SSW 11 15 6 8 1027.0 1026.9 0.4
27/06:00pm 11.0 8.9 9.6 91 0.7 SSW 11 11 6 6 1026.7 1026.6 0.4
27/05:30pm 10.7 8.3 8.7 87 1.0 SSW 11 15 6 8 1026.4 1026.3 0.4
27/05:00pm 11.4 8.0 9.0 85 1.2 S 17 22 9 12 1026.2 1026.1 0.4
27/04:30pm 11.6 10.5 9.8 89 0.9 WSW 6 9 3 5 1026.0 1025.9 0.4
27/04:00pm 11.2 7.4 9.8 91 0.7 WSW 20 30 11 16 1026.1 1026.0 0.4
27/03:30pm 12.4 9.4 10.5 88 1.0 WSW 17 24 9 13 1025.8 1025.8 0.2
27/03:00pm 12.6 9.3 9.6 82 1.5 WSW 17 28 9 15 1025.5 1025.5 0.2
27/02:30pm 13.9 9.2 7.8 66 3.0 SW 22 30 12 16 1025.3 1025.3 0.2
27/02:00pm 13.4 10.1 9.5 77 2.0 WSW 17 20 9 11 1025.1 1025.1 0.2
27/01:30pm 13.9 9.1 9.0 72 2.5 SSW 24 33 13 18 1025.0 1025.0 0.2
27/01:00pm 13.8 9.1 9.1 73 2.4 SW 24 33 13 18 1025.1 1025.1 0.2
27/12:30pm 15.1 11.0 8.8 66 3.2 SW 20 30 11 16 1025.1 1025.1 0.2
27/12:00pm 14.2 10.2 8.9 70 2.7 SSW 20 32 11 17 1025.3 1025.3 0.2
27/11:30am 14.1 9.7 9.0 71 2.6 SSW 22 28 12 15 1025.6 1025.6 0.2
27/11:00am 13.7 10.0 8.0 68 2.8 SW 17 28 9 15 1026.0 1025.9 0.2
27/10:30am 14.7 10.9 9.0 68 2.9 SW 19 32 10 17 1026.0 1025.9 0.0
27/10:00am 13.8 9.9 9.5 75 2.2 SSW 20 26 11 14 1025.8 1025.8 0.0
27/09:30am 13.2 9.3 9.5 78 1.9 SW 20 28 11 15 1025.7 1025.7 0.0
27/08:30am 11.0 8.9 9.8 92 0.6 WNW 11 15 6 8 1025.6 1025.6 0.8
27/08:00am 10.4 8.2 9.4 93 0.5 WNW 11 13 6 7 1025.5 1025.5 0.6
27/07:30am 9.4 7.0 8.6 95 0.4 WSW 11 13 6 7 1025.1 1025.1 0.6
27/07:00am 9.2 7.6 8.6 96 0.3 SW 7 13 4 7 1024.8 1024.8 0.6
27/06:30am 10.2 7.1 9.0 92 0.6 WSW 15 20 8 11 1024.6 1024.6 0.4
27/06:00am 9.7 7.4 8.9 95 0.4 W 11 17 6 9 1024.5 1024.5 0.4
27/05:30am 9.0 6.5 8.4 96 0.3 W 11 11 6 6 1024.3 1024.3 0.4
27/05:00am 8.8 6.7 8.2 96 0.3 W 9 11 5 6 1024.2 1024.2 0.4
27/04:30am 9.2 6.8 8.6 96 0.3 WSW 11 13 6 7 1024.1 1024.1 0.4
27/04:00am 8.8 6.3 8.2 96 0.3 WNW 11 11 6 6 1023.9 1023.9 0.4
27/03:30am 9.5 7.5 8.7 95 0.4 WSW 9 15 5 8 1023.9 1023.9 0.4
27/03:00am 9.9 8.0 8.9 93 0.5 WSW 9 11 5 6 1023.8 1023.8 0.2
27/02:30am 9.7 7.3 8.5 92 0.6 SSW 11 13 6 7 1023.8 1023.8 0.2
27/02:00am 10.2 6.9 9.4 95 0.4 W 17 20 9 11 1023.8 1023.8 0.2
27/01:30am 10.0 7.4 9.2 95 0.4 W 13 17 7 9 1023.9 1023.9 0.2
27/01:00am 10.0 7.0 9.4 96 0.3 SW 15 20 8 11 1023.9 1023.9 0.2
27/12:43am 10.1 7.9 9.5 96 0.3 WSW 11 15 6 8 1023.8 1023.8 0.2
27/12:30am 10.4 7.5 9.6 95 0.4 SW 15 22 8 12 1023.9 1023.9 0.2
27/12:24am 10.3 7.4 9.5 95 0.4 WSW 15 22 8 12 1023.9 1023.9 0.0
27/12:00am 9.9 7.3 9.3 96 0.3 W 13 17 7 9 1024.0 1024.0 0.0
 
Date/Time
CST
Temp
°C
App
Temp
°C
Dew
Point
Rel
Hum
%
Delta-T
°C
Wind Press
QNH
hPa
Press
MSL
hPa
Rain
since 9 am
mm
Dir
 
Spd
km/h
Gust
km/h
Spd
kts
Gust
kts
26/11:49pm 10.2 7.6 9.4 95 0.4 WSW 13 15 7 8 1024.1 1024.1 0.0
26/11:35pm 10.2 7.1 9.0 92 0.6 WSW 15 20 8 11 1024.1 1024.1 0.0
26/11:30pm 10.1 7.3 8.5 90 0.8 W 13 20 7 11 1024.1 1024.1 0.0
26/11:00pm 8.9 6.7 7.8 93 0.5 W 9 13 5 7 1024.0 1024.0 0.0
26/10:30pm 8.1 5.3 7.0 93 0.5 NW 11 13 6 7 1024.0 1024.0 0.0
26/10:00pm 9.2 7.0 7.7 90 0.7 NW 9 9 5 5 1024.0 1024.0 0.0
26/09:30pm 10.1 9.0 8.5 90 0.8 WNW 4 9 2 5 1024.1 1024.1 0.0
26/09:00pm 10.3 9.7 8.9 91 0.7 S 2 13 1 7 1024.2 1024.2 0.0
26/08:30pm 10.3 8.3 8.5 89 0.9 W 9 13 5 7 1023.9 1023.9 0.0
26/08:00pm 10.5 8.5 8.7 89 0.9 WSW 9 11 5 6 1023.8 1023.8 0.0
26/07:30pm 10.8 7.6 8.3 84 1.2 WSW 15 20 8 11 1023.8 1023.8 0.0
26/07:00pm 10.9 8.4 8.0 82 1.4 W 11 15 6 8 1023.6 1023.6 0.0
26/06:30pm 11.4 8.4 7.9 79 1.7 WSW 13 15 7 8 1023.4 1023.4 0.0
26/06:00pm 11.2 8.6 7.9 80 1.6 W 11 13 6 7 1023.2 1023.2 0.0
26/05:30pm 12.0 9.5 8.1 77 1.9 WSW 11 15 6 8 1023.1 1023.1 0.0
26/05:00pm 12.1 8.4 8.0 76 2.0 WSW 17 20 9 11 1023.0 1023.0 0.0
26/04:30pm 12.6 8.2 7.2 69 2.6 WSW 20 28 11 15 1022.8 1022.8 0.0
26/04:00pm 13.0 8.4 6.3 64 3.2 WSW 20 28 11 15 1022.7 1022.7 0.0
26/03:30pm 12.6 8.7 7.2 69 2.6 WSW 17 26 9 14 1022.6 1022.6 0.0
26/03:00pm 13.3 8.8 6.9 65 3.1 SW 20 30 11 16 1022.3 1022.3 0.0
26/02:30pm 13.4 8.0 4.5 55 4.1 WSW 22 37 12 20 1022.3 1022.3 0.0
26/02:00pm 14.4 8.1 3.9 49 4.8 WSW 26 33 14 18 1022.2 1022.2 0.0
26/01:30pm 13.9 7.4 4.6 53 4.3 SW 28 35 15 19 1022.0 1022.0 0.0
26/01:00pm 13.3 8.1 7.1 66 3.0 SW 24 37 13 20 1022.0 1022.0 0.0
26/12:30pm 13.5 8.7 5.4 58 3.8 WSW 20 32 11 17 1022.1 1022.1 0.0
26/12:00pm 13.3 8.3 6.6 64 3.2 SW 22 30 12 16 1022.3 1022.3 0.0
26/11:30am 13.4 7.8 5.5 59 3.7 SW 24 33 13 18 1022.5 1022.5 0.0
26/11:00am 12.9 8.5 7.3 69 2.7 SW 20 28 11 15 1022.5 1022.5 0.0
26/10:30am 12.8 9.5 7.9 72 2.4 SW 15 20 8 11 1022.5 1022.5 0.0
26/10:00am 12.2 8.1 7.7 74 2.2 SW 19 26 10 14 1022.5 1022.5 0.0
26/09:30am 12.1 9.0 8.9 81 1.6 SW 15 22 8 12 1022.4 1022.4 0.0
26/09:00am 11.5 7.4 8.7 83 1.4 WSW 20 30 11 16 1022.4 1022.4 2.6
26/08:30am 11.1 8.6 9.7 91 0.7 WSW 13 15 7 8 1022.2 1022.2 2.6
26/08:00am 10.4 7.5 9.6 95 0.4 SW 15 17 8 9 1022.0 1022.0 2.6
26/07:54am 10.3 7.4 9.7 96 0.3 SW 15 22 8 12 1021.8 1021.8 2.6
26/07:50am 10.3 7.0 9.5 95 0.4 SW 17 22 9 12 1021.8 1021.8 2.6
26/07:30am 10.2 7.3 9.8 97 0.2 SW 15 22 8 12 1021.7 1021.7 2.4
26/07:28am 10.2 7.7 9.8 97 0.2 SW 13 19 7 10 1021.6 1021.6 2.4
26/07:16am 10.1 8.4 9.7 97 0.2 SSW 9 13 5 7 1021.4 1021.4 2.4
26/07:00am 9.9 7.3 9.5 97 0.2 WSW 13 17 7 9 1021.0 1021.0 2.2
26/06:50am 9.8 7.2 9.2 96 0.3 SW 13 17 7 9 1020.9 1020.9 2.2
26/06:44am 9.8 6.8 9.2 96 0.3 SW 15 19 8 10 1020.8 1020.8 2.2
26/06:34am 9.8 7.2 9.2 96 0.3 WSW 13 20 7 11 1020.9 1020.9 2.2
26/06:30am 9.7 7.0 9.1 96 0.3 WSW 13 17 7 9 1020.9 1020.9 2.2
26/06:12am 9.1 6.2 8.3 95 0.4 W 13 13 7 7 1020.6 1020.6 2.2
26/06:00am 8.8 6.3 8.0 95 0.4 W 11 13 6 7 1020.5 1020.5 2.0
26/05:52am 8.8 6.3 8.0 95 0.4 WSW 11 13 6 7 1020.5 1020.5 2.0
26/05:35am 9.2 7.1 8.4 95 0.4 WSW 9 13 5 7 1020.4 1020.4 2.0
26/05:30am 9.0 7.3 8.2 95 0.4 W 7 9 4 5 1020.3 1020.3 2.0
26/05:00am 8.9 7.3 7.9 93 0.5 SSW 6 7 3 4 1020.2 1020.2 2.0
26/04:30am 9.4 7.3 8.2 92 0.6 WSW 9 11 5 6 1020.0 1020.0 2.0
26/04:00am 9.5 7.1 8.5 93 0.5 SW 11 13 6 7 1019.7 1019.7 2.0
26/03:30am 9.7 5.8 8.7 93 0.5 SW 19 26 10 14 1019.7 1019.7 2.0
26/03:00am 9.7 5.7 8.9 95 0.4 SSW 20 32 11 17 1019.5 1019.5 2.0
26/02:30am 9.4 7.3 8.4 93 0.5 SW 9 13 5 7 1019.7 1019.7 2.0
26/02:00am 9.8 6.8 7.7 87 1.0 SW 13 17 7 9 1019.5 1019.5 2.0
26/01:30am 9.9 5.7 8.3 90 0.8 SSW 20 28 11 15 1019.3 1019.3 2.0
26/01:00am 9.2 7.0 7.9 92 0.6 SW 9 11 5 6 1019.3 1019.3 2.0
26/12:30am 9.9 7.0 8.3 90 0.8 SSW 13 15 7 8 1019.2 1019.2 2.0
26/12:00am 9.7 6.8 8.0 89 0.8 SSW 13 19 7 10 1019.2 1019.2 2.0
 
Date/Time
CST
Temp
°C
App
Temp
°C
Dew
Point
Rel
Hum
%
Delta-T
°C
Wind Press
QNH
hPa
Press
MSL
hPa
Rain
since 9 am
mm
Dir
 
Spd
km/h
Gust
km/h
Spd
kts
Gust
kts
25/11:30pm 10.0 5.9 8.6 91 0.7 SW 20 30 11 16 1019.1 1019.1 2.0
25/11:00pm 9.4 6.8 7.9 90 0.7 SW 11 13 6 7 1019.0 1019.0 2.0
25/10:30pm 10.1 6.0 8.5 90 0.8 SSW 20 30 11 16 1019.1 1019.1 2.0
25/10:00pm 9.9 6.8 7.4 84 1.2 SW 13 17 7 9 1019.0 1019.0 2.0
25/09:30pm 10.4 6.2 7.3 81 1.5 SSW 19 26 10 14 1018.7 1018.7 2.0
25/09:00pm 10.2 6.3 7.3 82 1.4 SSW 17 24 9 13 1018.5 1018.5 2.0
25/08:30pm 11.2 8.2 7.9 80 1.6 SW 13 15 7 8 1018.3 1018.3 2.0
25/08:00pm 11.0 7.7 8.1 82 1.4 S 15 19 8 10 1017.9 1017.9 2.0
25/07:30pm 11.1 7.4 7.8 80 1.6 SSW 17 19 9 10 1017.7 1017.7 2.0
25/07:00pm 11.1 7.0 8.5 84 1.3 SSW 20 30 11 16 1017.5 1017.5 2.0
25/06:30pm 11.1 5.9 8.9 86 1.1 SSW 26 33 14 18 1017.1 1017.1 2.0
25/06:00pm 11.4 6.6 9.0 85 1.2 SSW 24 32 13 17 1016.4 1016.4 2.0
25/05:30pm 11.5 6.8 9.3 86 1.1 SSW 24 32 13 17 1015.9 1015.9 2.0
25/05:00pm 11.5 6.6 9.9 90 0.8 S 26 33 14 18 1015.4 1015.3 2.0
25/04:30pm 11.6 5.5 10.6 94 0.5 S 33 44 18 24 1015.0 1014.9 2.0
25/04:28pm 11.7 5.7 10.7 94 0.5 S 33 44 18 24 1015.0 1014.9 2.0
25/04:05pm 11.8 5.9 11.0 95 0.4 S 33 43 18 23 1014.6 1014.5 2.0
25/04:00pm 11.9 6.2 11.1 95 0.4 S 32 39 17 21 1014.5 1014.4 2.0
25/03:51pm 12.1 6.2 11.3 95 0.4 S 33 43 18 23 1014.4 1014.3 2.0
25/03:32pm 12.7 7.0 11.2 91 0.8 S 32 39 17 21 1014.0 1013.9 1.4
25/03:30pm 13.2 7.2 10.7 85 1.3 S 33 43 18 23 1014.0 1013.9 1.4
25/03:00pm 13.6 7.8 10.9 84 1.4 S 32 43 17 23 1013.5 1013.4 1.4
25/02:30pm 13.7 7.9 11.5 86 1.2 S 33 43 18 23 1013.2 1013.1 1.4
25/02:00pm 14.0 8.2 10.8 81 1.7 S 32 41 17 22 1012.7 1012.6 1.0
25/01:30pm 13.6 8.4 11.7 88 1.0 S 30 41 16 22 1012.5 1012.4 1.0
25/01:00pm 14.2 8.9 11.4 83 1.5 S 30 39 16 21 1012.1 1012.0 1.0
25/12:43pm 13.7 10.3 12.6 93 0.6 S 22 32 12 17 1012.1 1012.0 1.0
25/12:30pm 13.3 8.4 12.4 94 0.5 SSE 30 37 16 20 1012.1 1012.0 1.0
25/12:24pm 13.2 7.8 12.1 93 0.6 S 32 43 17 23 1012.1 1012.0 1.0
25/12:00pm 13.2 7.1 11.9 92 0.7 SSE 35 46 19 25 1011.9 1011.8 1.0
25/11:52am 13.2 7.2 12.1 93 0.6 S 35 44 19 24 1011.9 1011.8 1.0
25/11:47am 13.1 7.4 11.8 92 0.7 S 33 44 18 24 1011.8 1011.7 1.0
25/11:36am 12.7 6.2 11.8 94 0.5 S 37 56 20 30 1011.7 1011.6 1.0
25/11:33am 13.1 6.3 12.0 93 0.6 S 39 56 21 30 1011.6 1011.5 1.0
25/11:30am 13.1 7.1 12.0 93 0.6 S 35 56 19 30 1011.6 1011.5 0.8
25/11:24am 13.5 7.2 12.4 93 0.6 SSE 37 48 20 26 1011.5 1011.4 0.8
25/11:05am 13.3 10.3 12.6 95 0.4 S 20 37 11 20 1011.2 1011.1 0.6
25/11:00am 13.6 11.1 12.3 92 0.7 S 17 24 9 13 1011.2 1011.1 0.0
25/10:56am 13.6 11.1 12.3 92 0.7 S 17 24 9 13 1011.2 1011.1 0.0
25/10:30am 13.8 11.8 11.4 85 1.3 S 13 17 7 9 1010.9 1010.8 0.0
25/10:27am 13.8 11.9 11.8 88 1.1 S 13 17 7 9 1010.9 1010.8 0.0
25/10:12am 13.3 12.0 11.4 88 1.0 S 9 13 5 7 1010.8 1010.7 0.0
25/10:00am 13.4 12.0 10.9 85 1.3 S 9 11 5 6 1010.6 1010.6 0.0
25/09:30am 12.9 10.6 10.6 86 1.2 SW 13 17 7 9 1010.1 1010.1 0.0
25/09:00am 11.6 9.7 10.4 92 0.6 WSW 11 15 6 8 1010.0 1010.0 6.0
25/08:30am 10.3 9.2 9.9 97 0.2 WNW 6 7 3 4 1010.0 1010.0 -
25/08:00am 8.1 7.6 7.9 99 0.1 CALM 0 6 0 3 1009.8 1009.8 -
25/07:30am 5.7 3.4 5.5 99 0.1 NNE 7 9 4 5 1009.5 1009.5 -
25/07:00am 5.3 3.9 5.3 100 0.0 ESE 2 11 1 6 1009.1 1009.1 -
25/06:30am 5.2 4.1 5.2 100 0.0 CALM 0 0 0 0 1008.5 1008.5 -
25/06:00am 5.0 2.1 4.8 99 0.1 NW 9 9 5 5 1008.3 1008.3 -
25/05:30am 4.8 2.3 4.8 100 0.0 WNW 7 7 4 4 1008.2 1008.2 -
25/05:00am 4.7 2.3 4.5 99 0.1 W 6 7 3 4 1007.9 1007.9 -
25/04:30am 4.8 3.2 4.6 99 0.1 NW 2 7 1 4 1007.5 1007.5 -
25/04:00am 4.4 2.8 4.4 100 0.0 NW 2 6 1 3 1007.2 1007.2 -
25/03:30am 5.2 2.9 5.0 99 0.1 WNW 6 9 3 5 1007.2 1007.2 -
25/03:00am 4.6 2.0 4.1 97 0.2 NW 7 11 4 6 1007.0 1007.0 0.2
25/02:30am 4.2 2.8 3.5 95 0.3 CALM 0 2 0 1 1007.1 1007.1 -
25/02:00am 3.8 1.3 3.8 100 0.0 NNE 6 7 3 4 1007.0 1007.0 -
25/01:30am 4.2 1.2 4.0 99 0.1 NNE 9 11 5 6 1006.9 1006.9 -
25/01:00am 5.4 3.0 5.2 99 0.1 SSE 7 9 4 5 1006.8 1006.8 -
25/12:30am 6.5 5.7 6.5 100 0.0 CALM 0 0 0 0 1006.6 1006.6 -
25/12:14am 6.9 5.8 6.7 99 0.1 WNW 2 7 1 4 1006.6 1006.6 -
25/12:00am 6.7 5.5 6.5 99 0.1 WNW 2 7 1 4 1006.4 1006.4 -
 
Date/Time
CST
Temp
°C
App
Temp
°C
Dew
Point
Rel
Hum
%
Delta-T
°C
Wind Press
QNH
hPa
Press
MSL
hPa
Rain
since 9 am
mm
Dir
 
Spd
km/h
Gust
km/h
Spd
kts
Gust
kts
24/11:30pm 6.6 5.4 6.4 99 0.1 NNW 2 7 1 4 1006.3 1006.3 -
24/11:10pm 6.6 4.0 6.2 97 0.2 NE 9 11 5 6 1006.2 1006.2 -
24/11:00pm 6.5 3.9 6.3 99 0.1 NNE 9 13 5 7 1006.2 1006.2 -
24/10:50pm 7.0 5.9 6.8 99 0.1 N 2 7 1 4 1006.2 1006.2 -
24/10:45pm 7.2 6.5 6.8 97 0.2 CALM 0 0 0 0 1006.2 1006.2 -
24/10:30pm 6.9 4.8 6.5 97 0.2 NNE 7 11 4 6 1006.3 1006.3 -
24/10:00pm 7.2 4.8 6.8 97 0.2 NNE 9 11 5 6 1006.0 1006.0 -
24/09:50pm 7.0 4.1 6.6 97 0.2 N 11 13 6 7 1006.0 1006.0 -
24/09:30pm 7.7 5.4 7.3 97 0.2 NNE 9 11 5 6 1006.0 1006.0 -
24/09:00pm 7.8 5.1 7.2 96 0.3 N 11 13 6 7 1005.9 1005.9 0.2
24/08:30pm 7.9 4.8 7.3 96 0.3 N 13 15 7 8 1005.9 1005.9 -
24/08:00pm 8.2 5.5 7.4 95 0.4 N 11 13 6 7 1005.8 1005.8 -
24/07:30pm 8.9 6.7 7.9 93 0.5 N 9 13 5 7 1005.8 1005.8 -
24/07:11pm 10.1 7.7 8.5 90 0.8 N 11 19 6 10 1005.8 1005.8 -
24/07:00pm 10.6 9.0 8.6 87 1.0 SW 7 15 4 8 1005.7 1005.7 -
24/06:52pm 10.6 9.2 9.6 93 0.5 SW 7 13 4 7 1005.8 1005.8 -

Other Formats:

Comma delimited format used in spreadsheet applications
http://www.bom.gov.au/fwo/IDS60801/IDS60801.94821.axf

JavaScript Object Notation format (JSON) in row-major order
http://www.bom.gov.au/fwo/IDS60801/IDS60801.94821.json